createdAt,value
2023-03-23T00:00:12.463Z,10.32
2023-03-23T00:00:44.930Z,12.25
2023-03-23T00:01:17.342Z,19.85
2023-03-23T00:01:49.832Z,18.57
2023-03-23T00:02:22.319Z,15.85
2023-03-23T00:02:54.745Z,14.65
2023-03-23T00:03:27.188Z,17.13
2023-03-23T00:03:59.687Z,20.73
2023-03-23T00:04:32.121Z,17.13
2023-03-23T00:05:04.555Z,16.17
2023-03-23T00:05:37.008Z,13.61
2023-03-23T00:06:09.695Z,14.97
2023-03-23T00:06:42.194Z,14.33
2023-03-23T00:07:14.682Z,18.89
2023-03-23T00:07:47.204Z,11.77
2023-03-23T00:08:19.683Z,15.45
2023-03-23T00:08:52.250Z,12.25
2023-03-23T00:09:24.715Z,15.13
2023-03-23T00:09:57.157Z,7.92
2023-03-23T00:10:29.609Z,9.20
2023-03-23T00:11:02.042Z,9.52
2023-03-23T00:11:34.521Z,14.89
2023-03-23T00:12:07.005Z,11.05
2023-03-23T00:12:39.440Z,9.76
2023-03-23T00:13:11.929Z,13.77
2023-03-23T00:13:44.360Z,15.85
2023-03-23T00:14:16.857Z,15.29
2023-03-23T00:14:49.284Z,12.25
2023-03-23T00:15:21.849Z,17.29
2023-03-23T00:15:54.251Z,23.93
2023-03-23T00:16:26.760Z,16.81
2023-03-23T00:16:59.277Z,12.49
2023-03-23T00:17:31.738Z,15.05
2023-03-23T00:18:04.194Z,14.01
2023-03-23T00:18:36.631Z,21.69
2023-03-23T00:19:09.058Z,24.97
2023-03-23T00:19:41.527Z,18.33
2023-03-23T00:20:14.037Z,23.45
2023-03-23T00:20:46.477Z,22.17
2023-03-23T00:21:18.917Z,17.29
2023-03-23T00:21:51.362Z,19.61
2023-03-23T00:22:23.826Z,18.33
2023-03-23T00:22:56.311Z,13.37
2023-03-23T00:23:28.765Z,20.41
2023-03-23T00:24:01.219Z,14.97
2023-03-23T00:24:33.726Z,18.73
2023-03-23T00:25:06.231Z,11.05
2023-03-23T00:25:38.697Z,24.17
2023-03-23T00:26:11.101Z,14.81
2023-03-23T00:26:48.035Z,20.49
2023-03-23T00:27:16.065Z,19.77
2023-03-23T00:27:48.502Z,18.25
2023-03-23T00:28:21.000Z,16.09
2023-03-23T00:28:53.463Z,15.29
2023-03-23T00:29:25.935Z,14.17
2023-03-23T00:29:58.407Z,14.09
2023-03-23T00:30:30.883Z,19.61
2023-03-23T00:31:03.370Z,12.33
2023-03-23T00:31:35.835Z,12.89
2023-03-23T00:32:08.270Z,7.44
2023-03-23T00:32:40.701Z,15.21
2023-03-23T00:33:13.173Z,16.09
2023-03-23T00:33:45.623Z,6.56
2023-03-23T00:34:18.090Z,9.04
2023-03-23T00:34:50.543Z,23.69
2023-03-23T00:35:23.013Z,18.17
2023-03-23T00:35:55.481Z,23.05
2023-03-23T00:36:27.897Z,28.97
2023-03-23T00:37:00.361Z,21.69
2023-03-23T00:37:32.859Z,18.33
2023-03-23T00:38:05.287Z,19.45
2023-03-23T00:38:37.750Z,17.21
2023-03-23T00:39:10.207Z,11.05
2023-03-23T00:39:42.708Z,12.57
2023-03-23T00:40:15.141Z,14.09
2023-03-23T00:40:47.586Z,11.37
2023-03-23T00:41:20.060Z,14.73
2023-03-23T00:41:52.638Z,13.69
2023-03-23T00:42:25.206Z,11.29
2023-03-23T00:42:57.679Z,13.13
2023-03-23T00:43:30.143Z,12.81
2023-03-23T00:44:02.577Z,11.53
2023-03-23T00:44:35.045Z,12.25
2023-03-23T00:45:07.512Z,10.24
2023-03-23T00:45:40.066Z,6.00
2023-03-23T00:46:12.381Z,8.00
2023-03-23T00:46:44.818Z,10.24
2023-03-23T00:47:17.290Z,7.28
2023-03-23T00:47:49.818Z,7.28
2023-03-23T00:48:22.258Z,8.24
2023-03-23T00:48:54.748Z,12.09
2023-03-23T00:49:27.193Z,14.73
2023-03-23T00:49:59.733Z,11.61
2023-03-23T00:50:38.721Z,11.61
2023-03-23T00:51:04.708Z,12.01
2023-03-23T00:51:37.211Z,20.17
2023-03-23T00:52:09.643Z,17.61
2023-03-23T00:52:42.099Z,23.69
2023-03-23T00:53:14.579Z,16.97
2023-03-23T00:53:47.031Z,7.92
2023-03-23T00:54:19.485Z,7.76
2023-03-23T00:54:51.936Z,12.09
2023-03-23T00:55:24.373Z,11.85
2023-03-23T00:55:56.849Z,9.04
2023-03-23T00:56:29.335Z,13.69
2023-03-23T00:57:01.797Z,9.60
2023-03-23T00:57:34.284Z,6.24
2023-03-23T00:58:06.761Z,6.80
2023-03-23T00:58:39.203Z,8.00
2023-03-23T00:59:11.666Z,11.93
2023-03-23T00:59:44.119Z,12.49
2023-03-23T01:00:16.536Z,10.89
2023-03-23T01:00:49.015Z,10.97
2023-03-23T01:01:21.438Z,10.48
2023-03-23T01:01:53.920Z,5.84
2023-03-23T01:02:26.413Z,5.44
2023-03-23T01:02:58.836Z,12.17
2023-03-23T01:03:31.357Z,11.29
2023-03-23T01:04:03.831Z,14.33
2023-03-23T01:04:36.237Z,6.72
2023-03-23T01:05:08.692Z,10.08
2023-03-23T01:05:41.348Z,9.92
2023-03-23T01:06:13.692Z,9.36
2023-03-23T01:06:46.145Z,9.20
2023-03-23T01:07:18.627Z,7.68
2023-03-23T01:07:51.069Z,7.68
2023-03-23T01:08:23.536Z,7.28
2023-03-23T01:08:56.002Z,7.92
2023-03-23T01:09:28.458Z,10.16
2023-03-23T01:10:00.913Z,13.29
2023-03-23T01:10:33.431Z,9.20
2023-03-23T01:11:05.912Z,11.45
2023-03-23T01:11:38.344Z,10.48
2023-03-23T01:12:10.798Z,9.12
2023-03-23T01:12:43.217Z,9.44
2023-03-23T01:13:15.679Z,8.80
2023-03-23T01:13:48.144Z,4.16
2023-03-23T01:14:20.603Z,7.04
2023-03-23T01:14:53.060Z,9.52
2023-03-23T01:15:25.539Z,9.52
2023-03-23T01:15:57.985Z,11.21
2023-03-23T01:16:30.474Z,11.21
2023-03-23T01:17:02.871Z,13.69
2023-03-23T01:17:35.282Z,12.25
2023-03-23T01:18:07.765Z,8.96
2023-03-23T01:18:40.244Z,7.28
2023-03-23T01:19:12.700Z,5.52
2023-03-23T01:19:45.327Z,4.96
2023-03-23T01:20:17.783Z,11.53
2023-03-23T01:20:50.231Z,8.64
2023-03-23T01:21:22.675Z,7.84
2023-03-23T01:21:55.151Z,9.76
2023-03-23T01:22:27.632Z,7.84
2023-03-23T01:23:00.266Z,8.32
2023-03-23T01:23:32.762Z,12.73
2023-03-23T01:24:05.208Z,10.57
2023-03-23T01:24:37.658Z,11.93
2023-03-23T01:25:10.116Z,9.12
2023-03-23T01:25:42.790Z,13.45
2023-03-23T01:26:15.016Z,15.13
2023-03-23T01:26:47.476Z,10.00
2023-03-23T01:27:19.919Z,8.48
2023-03-23T01:27:52.365Z,8.00
2023-03-23T01:28:24.813Z,7.20
2023-03-23T01:28:57.282Z,9.60
2023-03-23T01:29:29.722Z,7.28
2023-03-23T01:30:02.197Z,9.12
2023-03-23T01:30:34.698Z,9.28
2023-03-23T01:31:14.577Z,10.40
2023-03-23T01:31:39.611Z,6.96
2023-03-23T01:32:12.064Z,7.44
2023-03-23T01:32:44.506Z,9.68
2023-03-23T01:33:16.981Z,9.76
2023-03-23T01:33:49.525Z,9.44
2023-03-23T01:34:21.957Z,8.56
2023-03-23T01:34:54.417Z,6.00
2023-03-23T01:35:26.944Z,8.56
2023-03-23T01:35:59.418Z,11.37
2023-03-23T01:36:31.916Z,8.40
2023-03-23T01:37:04.423Z,8.00
2023-03-23T01:37:36.844Z,21.21
2023-03-23T01:38:09.303Z,11.85
2023-03-23T01:38:41.794Z,13.61
2023-03-23T01:39:14.231Z,8.56
2023-03-23T01:39:46.687Z,11.13
2023-03-23T01:40:19.115Z,8.64
2023-03-23T01:40:51.592Z,12.89
2023-03-23T01:41:24.035Z,11.69
2023-03-23T01:41:56.569Z,8.48
2023-03-23T01:42:29.006Z,14.09
2023-03-23T01:43:01.450Z,15.53
2023-03-23T01:43:33.932Z,12.89
2023-03-23T01:44:06.489Z,12.01
2023-03-23T01:44:38.962Z,10.97
2023-03-23T01:45:11.412Z,9.60
2023-03-23T01:45:43.869Z,10.57
2023-03-23T01:46:16.308Z,9.60
2023-03-23T01:46:48.752Z,14.33
2023-03-23T01:47:21.201Z,8.48
2023-03-23T01:47:53.663Z,7.52
2023-03-23T01:48:26.132Z,9.28
2023-03-23T01:48:58.612Z,10.08
2023-03-23T01:49:31.128Z,14.97
2023-03-23T01:50:03.644Z,14.09
2023-03-23T01:50:36.112Z,21.21
2023-03-23T01:51:08.560Z,17.21
2023-03-23T01:51:42.199Z,15.13
2023-03-23T01:52:13.479Z,26.65
2023-03-23T01:52:46.172Z,18.09
2023-03-23T01:53:18.631Z,12.81
2023-03-23T01:53:51.073Z,15.69
2023-03-23T01:54:23.573Z,19.37
2023-03-23T01:54:56.083Z,22.33
2023-03-23T01:55:28.572Z,17.29
2023-03-23T01:56:01.039Z,17.21
2023-03-23T01:56:33.499Z,21.85
2023-03-23T01:57:05.964Z,19.93
2023-03-23T01:57:38.393Z,24.57
2023-03-23T01:58:10.911Z,20.41
2023-03-23T01:58:43.452Z,15.85
2023-03-23T01:59:15.973Z,15.13
2023-03-23T01:59:48.584Z,16.65
2023-03-23T02:00:21.134Z,22.57
2023-03-23T02:00:53.595Z,13.53
2023-03-23T02:01:26.048Z,13.21
2023-03-23T02:01:58.518Z,12.49
2023-03-23T02:02:30.994Z,7.12
2023-03-23T02:03:03.542Z,9.28
2023-03-23T02:03:35.995Z,14.89
2023-03-23T02:04:08.471Z,16.01
2023-03-23T02:04:40.916Z,11.37
2023-03-23T02:05:13.374Z,12.57
2023-03-23T02:05:45.837Z,14.81
2023-03-23T02:06:18.312Z,9.04
2023-03-23T02:06:50.719Z,9.84
2023-03-23T02:07:23.220Z,10.24
2023-03-23T02:07:55.785Z,7.84
2023-03-23T02:08:28.245Z,8.64
2023-03-23T02:09:00.763Z,12.25
2023-03-23T02:09:33.193Z,12.25
2023-03-23T02:10:05.635Z,7.60
2023-03-23T02:10:38.094Z,9.04
2023-03-23T02:11:10.608Z,9.12
2023-03-23T02:11:43.122Z,9.28
2023-03-23T02:12:15.583Z,7.12
2023-03-23T02:12:48.033Z,6.00
2023-03-23T02:13:20.460Z,7.20
2023-03-23T02:13:52.972Z,11.69
2023-03-23T02:14:25.443Z,9.44
2023-03-23T02:14:57.944Z,8.32
2023-03-23T02:15:30.530Z,9.36
2023-03-23T02:16:02.985Z,11.13
2023-03-23T02:16:35.455Z,7.04
2023-03-23T02:17:07.895Z,6.64
2023-03-23T02:17:40.428Z,10.48
2023-03-23T02:18:12.892Z,8.96
2023-03-23T02:18:45.347Z,6.96
2023-03-23T02:19:17.925Z,6.56
2023-03-23T02:19:50.397Z,10.57
2023-03-23T02:20:22.820Z,5.20
2023-03-23T02:20:55.350Z,7.44
2023-03-23T02:21:27.800Z,9.68
2023-03-23T02:22:00.294Z,7.76
2023-03-23T02:22:32.763Z,5.52
2023-03-23T02:23:05.189Z,8.96
2023-03-23T02:23:37.642Z,8.40
2023-03-23T02:24:10.095Z,8.08
2023-03-23T02:24:42.580Z,6.88
2023-03-23T02:25:15.145Z,7.60
2023-03-23T02:25:47.565Z,9.20
2023-03-23T02:26:20.049Z,5.76
2023-03-23T02:26:52.543Z,8.72
2023-03-23T02:27:24.976Z,7.52
2023-03-23T02:27:57.415Z,9.36
2023-03-23T02:28:29.862Z,6.40
2023-03-23T02:29:02.345Z,6.32
2023-03-23T02:29:34.819Z,9.12
2023-03-23T02:30:07.307Z,8.00
2023-03-23T02:30:39.807Z,5.28
2023-03-23T02:31:12.278Z,6.32
2023-03-23T02:31:44.781Z,10.16
2023-03-23T02:32:17.239Z,9.68
2023-03-23T02:32:49.739Z,12.25
2023-03-23T02:33:22.226Z,10.65
2023-03-23T02:33:54.724Z,8.80
2023-03-23T02:34:27.238Z,10.16
2023-03-23T02:34:59.804Z,8.08
2023-03-23T02:35:32.283Z,8.24
2023-03-23T02:36:04.749Z,8.16
2023-03-23T02:36:37.196Z,8.56
2023-03-23T02:37:09.725Z,7.28
2023-03-23T02:37:42.173Z,8.56
2023-03-23T02:38:14.605Z,7.28
2023-03-23T02:38:47.081Z,10.32
2023-03-23T02:39:19.631Z,12.25
2023-03-23T02:39:52.091Z,7.36
2023-03-23T02:40:24.582Z,11.53
2023-03-23T02:40:57.053Z,20.25
2023-03-23T02:41:29.515Z,13.05
2023-03-23T02:42:02.002Z,16.09
2023-03-23T02:42:34.519Z,14.41
2023-03-23T02:43:07.060Z,13.05
2023-03-23T02:43:39.544Z,16.65
2023-03-23T02:44:11.995Z,14.09
2023-03-23T02:44:44.535Z,11.21
2023-03-23T02:45:16.972Z,9.36
2023-03-23T02:45:49.445Z,7.92
2023-03-23T02:46:21.940Z,11.69
2023-03-23T02:46:54.469Z,13.21
2023-03-23T02:47:26.946Z,8.40
2023-03-23T02:47:59.420Z,4.96
2023-03-23T02:48:31.896Z,8.32
2023-03-23T02:49:04.548Z,7.92
2023-03-23T02:49:36.990Z,8.96
2023-03-23T02:50:10.387Z,12.49
2023-03-23T02:50:42.867Z,8.40
2023-03-23T02:51:15.365Z,9.44
2023-03-23T02:51:47.846Z,9.84
2023-03-23T02:52:20.426Z,10.00
2023-03-23T02:52:52.891Z,6.96
2023-03-23T02:53:25.365Z,6.00
2023-03-23T02:53:57.837Z,9.52
2023-03-23T02:54:30.285Z,5.04
2023-03-23T02:55:02.798Z,8.96
2023-03-23T02:55:35.203Z,13.29
2023-03-23T02:56:07.696Z,9.12
2023-03-23T02:56:40.153Z,9.92
2023-03-23T02:57:12.575Z,10.81
2023-03-23T02:57:45.056Z,11.29
2023-03-23T02:58:17.537Z,5.36
2023-03-23T02:58:50.043Z,11.13
2023-03-23T02:59:31.291Z,14.01
2023-03-23T03:00:03.710Z,12.73
2023-03-23T03:00:36.145Z,15.69
2023-03-23T03:01:08.598Z,8.48
2023-03-23T03:01:41.079Z,5.76
2023-03-23T03:02:13.564Z,8.16
2023-03-23T03:02:46.029Z,10.57
2023-03-23T03:03:18.508Z,8.80
2023-03-23T03:03:50.952Z,10.73
2023-03-23T03:04:23.421Z,7.76
2023-03-23T03:04:55.872Z,9.44
2023-03-23T03:05:28.308Z,8.48
2023-03-23T03:06:00.755Z,10.32
2023-03-23T03:06:33.198Z,7.92
2023-03-23T03:07:05.653Z,10.97
2023-03-23T03:07:38.119Z,9.68
2023-03-23T03:08:10.578Z,9.84
2023-03-23T03:08:43.070Z,9.60
2023-03-23T03:09:15.608Z,17.21
2023-03-23T03:09:48.121Z,9.92
2023-03-23T03:10:20.566Z,8.64
2023-03-23T03:10:52.983Z,6.56
2023-03-23T03:11:25.495Z,7.52
2023-03-23T03:11:57.950Z,11.37
2023-03-23T03:12:30.385Z,15.93
2023-03-23T03:13:02.816Z,11.93
2023-03-23T03:13:35.313Z,9.36
2023-03-23T03:14:07.791Z,13.61
2023-03-23T03:14:40.245Z,14.41
2023-03-23T03:15:12.736Z,11.21
2023-03-23T03:15:45.147Z,11.61
2023-03-23T03:16:17.641Z,11.45
2023-03-23T03:16:50.079Z,12.97
2023-03-23T03:17:22.532Z,7.76
2023-03-23T03:17:54.978Z,12.97
2023-03-23T03:18:27.404Z,11.37
2023-03-23T03:18:59.931Z,9.52
2023-03-23T03:19:32.364Z,6.16
2023-03-23T03:20:04.792Z,11.37
2023-03-23T03:20:37.245Z,15.77
2023-03-23T03:21:09.692Z,11.45
2023-03-23T03:21:42.107Z,9.20
2023-03-23T03:22:14.525Z,10.32
2023-03-23T03:22:46.952Z,14.17
2023-03-23T03:23:19.421Z,11.61
2023-03-23T03:23:51.896Z,13.21
2023-03-23T03:24:24.317Z,9.68
2023-03-23T03:24:56.767Z,13.05
2023-03-23T03:25:29.250Z,11.05
2023-03-23T03:26:01.699Z,13.13
2023-03-23T03:26:34.177Z,10.73
2023-03-23T03:27:06.639Z,15.05
2023-03-23T03:27:39.100Z,11.77
2023-03-23T03:28:11.602Z,6.80
2023-03-23T03:28:44.075Z,8.40
2023-03-23T03:29:16.538Z,8.40
2023-03-23T03:29:49.085Z,6.72
2023-03-23T03:30:21.538Z,10.32
2023-03-23T03:30:54.103Z,10.73
2023-03-23T03:31:26.552Z,11.61
2023-03-23T03:31:58.999Z,15.05
2023-03-23T03:32:31.449Z,8.56
2023-03-23T03:33:03.916Z,15.85
2023-03-23T03:33:36.363Z,9.60
2023-03-23T03:34:08.801Z,12.57
2023-03-23T03:34:41.303Z,16.17
2023-03-23T03:35:13.779Z,10.48
2023-03-23T03:35:46.214Z,14.89
2023-03-23T03:36:18.759Z,12.65
2023-03-23T03:36:51.138Z,18.01
2023-03-23T03:37:23.593Z,17.37
2023-03-23T03:37:56.046Z,12.49
2023-03-23T03:38:28.542Z,10.65
2023-03-23T03:39:01.018Z,12.33
2023-03-23T03:39:33.467Z,9.04
2023-03-23T03:40:05.898Z,8.00
2023-03-23T03:40:38.349Z,6.00
2023-03-23T03:41:10.812Z,12.17
2023-03-23T03:41:43.276Z,12.17
2023-03-23T03:42:15.805Z,11.53
2023-03-23T03:42:48.302Z,12.01
2023-03-23T03:43:20.787Z,9.36
2023-03-23T03:43:53.253Z,18.01
2023-03-23T03:44:25.698Z,13.21
2023-03-23T03:44:58.188Z,12.17
2023-03-23T03:45:30.611Z,10.00
2023-03-23T03:46:03.064Z,14.09
2023-03-23T03:46:35.524Z,14.01
2023-03-23T03:47:07.989Z,11.53
2023-03-23T03:47:40.449Z,10.65
2023-03-23T03:48:12.923Z,10.40
2023-03-23T03:48:45.387Z,13.37
2023-03-23T03:49:17.809Z,8.72
2023-03-23T03:49:50.293Z,14.01
2023-03-23T03:50:22.754Z,11.37
2023-03-23T03:50:55.229Z,9.76
2023-03-23T03:51:27.709Z,9.20
2023-03-23T03:52:00.157Z,14.01
2023-03-23T03:52:32.616Z,10.97
2023-03-23T03:53:05.059Z,9.76
2023-03-23T03:53:37.508Z,16.41
2023-03-23T03:54:09.955Z,15.77
2023-03-23T03:54:42.376Z,10.08
2023-03-23T03:55:14.819Z,11.21
2023-03-23T03:55:47.276Z,9.20
2023-03-23T03:56:19.725Z,7.60
2023-03-23T03:56:52.190Z,12.57
2023-03-23T03:57:24.626Z,9.68
2023-03-23T03:57:57.084Z,10.32
2023-03-23T03:58:29.516Z,11.45
2023-03-23T03:59:21.368Z,12.97
2023-03-23T03:59:34.385Z,20.49
2023-03-23T04:00:06.847Z,10.57
2023-03-23T04:00:39.287Z,6.72
2023-03-23T04:01:11.732Z,11.13
2023-03-23T04:01:44.150Z,12.97
2023-03-23T04:02:16.589Z,14.25
2023-03-23T04:02:49.027Z,11.13
2023-03-23T04:03:21.435Z,9.60
2023-03-23T04:03:53.899Z,12.65
2023-03-23T04:04:26.349Z,13.29
2023-03-23T04:04:58.840Z,12.17
2023-03-23T04:05:31.354Z,12.01
2023-03-23T04:06:03.833Z,10.97
2023-03-23T04:06:36.304Z,11.29
2023-03-23T04:07:08.731Z,8.56
2023-03-23T04:07:41.182Z,12.09
2023-03-23T04:08:13.658Z,15.61
2023-03-23T04:08:46.128Z,9.36
2023-03-23T04:09:18.574Z,14.01
2023-03-23T04:09:51.052Z,10.08
2023-03-23T04:10:32.650Z,10.57
2023-03-23T04:10:55.974Z,8.64
2023-03-23T04:11:32.699Z,13.29
2023-03-23T04:12:00.900Z,12.09
2023-03-23T04:12:33.387Z,12.65
2023-03-23T04:13:05.824Z,8.96
2023-03-23T04:13:38.270Z,14.73
2023-03-23T04:14:10.768Z,9.28
2023-03-23T04:14:43.227Z,11.69
2023-03-23T04:15:15.711Z,11.29
2023-03-23T04:16:10.182Z,13.93
2023-03-23T04:16:20.584Z,18.33
2023-03-23T04:16:54.606Z,7.04
2023-03-23T04:17:25.468Z,6.24
2023-03-23T04:17:57.895Z,8.80
2023-03-23T04:18:30.360Z,8.96
2023-03-23T04:19:02.893Z,11.61
2023-03-23T04:19:35.349Z,13.21
2023-03-23T04:20:07.857Z,9.28
2023-03-23T04:20:40.274Z,18.97
2023-03-23T04:21:12.720Z,11.61
2023-03-23T04:21:45.178Z,9.44
2023-03-23T04:22:17.686Z,10.57
2023-03-23T04:22:50.120Z,9.68
2023-03-23T04:23:22.563Z,14.97
2023-03-23T04:23:54.995Z,14.17
2023-03-23T04:24:56.717Z,10.32
2023-03-23T04:24:59.993Z,12.89
2023-03-23T04:25:32.447Z,14.57
2023-03-23T04:26:04.886Z,12.33
2023-03-23T04:26:37.301Z,12.17
2023-03-23T04:27:09.715Z,12.49
2023-03-23T04:27:42.158Z,14.97
2023-03-23T04:28:14.589Z,13.13
2023-03-23T04:28:47.040Z,18.49
2023-03-23T04:29:19.507Z,13.77
2023-03-23T04:29:52.036Z,9.76
2023-03-23T04:30:24.517Z,10.08
2023-03-23T04:30:56.952Z,15.13
2023-03-23T04:31:29.404Z,14.17
2023-03-23T04:32:01.852Z,10.24
2023-03-23T04:32:34.315Z,18.65
2023-03-23T04:33:06.770Z,17.37
2023-03-23T04:33:57.619Z,17.37
2023-03-23T04:34:11.761Z,22.33
2023-03-23T04:34:44.237Z,15.05
2023-03-23T04:35:16.729Z,14.41
2023-03-23T04:35:49.249Z,18.25
2023-03-23T04:36:21.657Z,18.41
2023-03-23T04:36:56.168Z,16.25
2023-03-23T04:37:26.563Z,14.89
2023-03-23T04:37:59.021Z,15.21
2023-03-23T04:38:31.458Z,15.21
2023-03-23T04:39:03.899Z,14.17
2023-03-23T04:39:36.370Z,21.13
2023-03-23T04:40:08.857Z,26.09
2023-03-23T04:40:41.403Z,15.45
2023-03-23T04:41:13.846Z,16.09
2023-03-23T04:41:46.321Z,12.09
2023-03-23T04:42:18.805Z,17.85
2023-03-23T04:42:51.255Z,26.57
2023-03-23T04:43:23.721Z,14.41
2023-03-23T04:43:56.188Z,32.02
2023-03-23T04:44:28.658Z,19.61
2023-03-23T04:45:01.160Z,15.13
2023-03-23T04:45:33.634Z,12.89
2023-03-23T04:46:06.038Z,15.21
2023-03-23T04:46:38.505Z,11.37
2023-03-23T04:47:10.960Z,12.41
2023-03-23T04:47:43.400Z,16.81
2023-03-23T04:48:15.845Z,16.17
2023-03-23T04:48:48.333Z,20.33
2023-03-23T04:49:20.768Z,21.85
2023-03-23T04:49:53.270Z,14.01
2023-03-23T04:50:25.727Z,19.45
2023-03-23T04:50:58.185Z,16.17
2023-03-23T04:51:30.656Z,27.77
2023-03-23T04:52:03.144Z,23.05
2023-03-23T04:52:35.643Z,23.69
2023-03-23T04:53:08.051Z,27.21
2023-03-23T04:53:40.476Z,22.57
2023-03-23T04:54:12.932Z,32.02
2023-03-23T04:54:45.423Z,17.53
2023-03-23T04:55:17.955Z,26.33
2023-03-23T04:55:50.409Z,28.81
2023-03-23T04:56:22.850Z,21.69
2023-03-23T04:56:55.298Z,25.77
2023-03-23T04:57:27.773Z,27.45
2023-03-23T04:58:00.212Z,19.45
2023-03-23T04:58:32.647Z,29.61
2023-03-23T04:59:05.079Z,39.14
2023-03-23T04:59:37.616Z,34.42
2023-03-23T05:00:10.096Z,27.13
2023-03-23T05:00:42.582Z,26.81
2023-03-23T05:01:15.101Z,28.17
2023-03-23T05:01:47.523Z,19.85
2023-03-23T05:02:20.107Z,22.41
2023-03-23T05:02:52.629Z,22.81
2023-03-23T05:03:25.111Z,13.93
2023-03-23T05:03:57.589Z,14.89
2023-03-23T05:04:30.041Z,11.61
2023-03-23T05:05:02.529Z,9.28
2023-03-23T05:05:34.969Z,7.60
2023-03-23T05:06:07.418Z,10.48
2023-03-23T05:06:39.861Z,12.97
2023-03-23T05:07:12.297Z,14.89
2023-03-23T05:07:44.732Z,14.65
2023-03-23T05:08:17.190Z,16.57
2023-03-23T05:08:49.624Z,11.45
2023-03-23T05:09:22.099Z,12.49
2023-03-23T05:09:54.501Z,15.37
2023-03-23T05:10:26.973Z,19.77
2023-03-23T05:10:59.431Z,17.21
2023-03-23T05:11:31.910Z,10.80
2023-03-23T05:12:04.394Z,6.56
2023-03-23T05:12:36.822Z,7.12
2023-03-23T05:13:09.286Z,8.00
2023-03-23T05:13:41.787Z,16.65
2023-03-23T05:14:14.266Z,17.37
2023-03-23T05:14:46.725Z,12.01
2023-03-23T05:15:19.220Z,18.97
2023-03-23T05:15:51.703Z,15.77
2023-03-23T05:16:24.156Z,15.13
2023-03-23T05:16:56.595Z,10.40
2023-03-23T05:17:29.127Z,11.53
2023-03-23T05:18:01.608Z,10.65
2023-03-23T05:18:34.133Z,13.45
2023-03-23T05:19:06.638Z,10.24
2023-03-23T05:19:39.089Z,16.41
2023-03-23T05:20:11.538Z,20.17
2023-03-23T05:20:43.996Z,12.49
2023-03-23T05:21:16.444Z,9.84
2023-03-23T05:21:48.902Z,9.28
2023-03-23T05:22:21.334Z,8.16
2023-03-23T05:22:53.827Z,12.65
2023-03-23T05:23:26.277Z,19.93
2023-03-23T05:23:58.727Z,12.41
2023-03-23T05:24:31.244Z,22.01
2023-03-23T05:25:03.709Z,12.57
2023-03-23T05:25:36.181Z,13.05
2023-03-23T05:26:08.635Z,9.36
2023-03-23T05:26:41.167Z,10.89
2023-03-23T05:27:13.636Z,9.52
2023-03-23T05:27:46.142Z,9.28
2023-03-23T05:28:18.603Z,10.73
2023-03-23T05:28:51.105Z,18.49
2023-03-23T05:29:23.524Z,22.09
2023-03-23T05:29:55.977Z,20.65
2023-03-23T05:30:28.452Z,18.73
2023-03-23T05:31:00.941Z,12.89
2023-03-23T05:31:33.426Z,9.20
2023-03-23T05:32:05.835Z,12.65
2023-03-23T05:32:38.320Z,10.48
2023-03-23T05:33:10.778Z,8.72
2023-03-23T05:33:43.217Z,8.96
2023-03-23T05:34:15.650Z,7.12
2023-03-23T05:34:48.096Z,5.36
2023-03-23T05:35:20.540Z,11.05
2023-03-23T05:35:53.050Z,10.97
2023-03-23T05:36:25.475Z,11.69
2023-03-23T05:36:57.963Z,9.36
2023-03-23T05:37:30.408Z,9.28
2023-03-23T05:38:02.875Z,10.00
2023-03-23T05:38:35.440Z,8.24
2023-03-23T05:39:07.929Z,11.13
2023-03-23T05:39:40.363Z,9.12
2023-03-23T05:40:12.838Z,8.96
2023-03-23T05:40:45.286Z,18.89
2023-03-23T05:41:17.761Z,13.77
2023-03-23T05:41:50.208Z,11.85
2023-03-23T05:42:22.721Z,14.81
2023-03-23T05:42:55.173Z,11.12
2023-03-23T05:43:27.668Z,12.49
2023-03-23T05:44:00.196Z,9.44
2023-03-23T05:44:32.602Z,10.81
2023-03-23T05:45:05.057Z,12.33
2023-03-23T05:45:37.533Z,11.13
2023-03-23T05:46:09.963Z,9.12
2023-03-23T05:46:42.442Z,6.96
2023-03-23T05:47:14.930Z,10.24
2023-03-23T05:47:47.487Z,6.32
2023-03-23T05:48:20.046Z,7.28
2023-03-23T05:48:52.550Z,8.16
2023-03-23T05:49:25.061Z,13.53
2023-03-23T05:49:57.509Z,16.33
2023-03-23T05:50:30.136Z,12.97
2023-03-23T05:51:02.567Z,10.16
2023-03-23T05:51:35.043Z,16.33
2023-03-23T05:52:07.498Z,10.81
2023-03-23T05:52:39.932Z,9.04
2023-03-23T05:53:12.655Z,9.20
2023-03-23T05:53:44.894Z,10.65
2023-03-23T05:54:17.344Z,11.85
2023-03-23T05:54:49.852Z,9.68
2023-03-23T05:55:22.292Z,13.29
2023-03-23T05:55:54.739Z,11.45
2023-03-23T05:56:27.192Z,7.60
2023-03-23T05:56:59.619Z,8.56
2023-03-23T05:57:32.074Z,10.81
2023-03-23T05:58:04.493Z,16.73
2023-03-23T05:58:36.979Z,9.12
2023-03-23T05:59:09.442Z,9.84
2023-03-23T05:59:42.917Z,12.01
2023-03-23T06:00:14.401Z,8.32
2023-03-23T06:00:46.840Z,12.01
2023-03-23T06:01:19.285Z,8.96
2023-03-23T06:01:51.743Z,8.40
2023-03-23T06:02:24.216Z,12.01
2023-03-23T06:02:56.697Z,14.57
2023-03-23T06:03:29.167Z,16.49
2023-03-23T06:04:01.611Z,18.97
2023-03-23T06:04:34.081Z,13.53
2023-03-23T06:05:06.554Z,6.48
2023-03-23T06:05:39.095Z,10.00
2023-03-23T06:06:11.473Z,9.12
2023-03-23T06:06:43.909Z,8.64
2023-03-23T06:07:16.368Z,8.64
2023-03-23T06:07:48.822Z,11.69
2023-03-23T06:08:21.265Z,13.29
2023-03-23T06:08:54.741Z,9.12
2023-03-23T06:09:27.538Z,14.57
2023-03-23T06:10:00.051Z,10.81
2023-03-23T06:10:32.484Z,11.45
2023-03-23T06:11:04.969Z,20.09
2023-03-23T06:11:37.414Z,12.01
2023-03-23T06:12:09.861Z,8.80
2023-03-23T06:12:42.368Z,11.29
2023-03-23T06:13:14.919Z,12.81
2023-03-23T06:13:47.342Z,11.37
2023-03-23T06:14:19.780Z,17.93
2023-03-23T06:14:52.252Z,16.89
2023-03-23T06:15:24.726Z,16.17
2023-03-23T06:15:57.189Z,10.89
2023-03-23T06:16:29.664Z,10.24
2023-03-23T06:17:02.132Z,7.12
2023-03-23T06:17:34.615Z,6.00
2023-03-23T06:18:07.031Z,6.08
2023-03-23T06:18:39.508Z,10.89
2023-03-23T06:19:11.969Z,11.93
2023-03-23T06:19:44.440Z,11.93
2023-03-23T06:20:16.895Z,7.92
2023-03-23T06:20:49.443Z,8.64
2023-03-23T06:21:21.824Z,9.52
2023-03-23T06:21:54.291Z,10.00
2023-03-23T06:22:26.738Z,6.56
2023-03-23T06:22:59.231Z,11.93
2023-03-23T06:23:31.690Z,13.61
2023-03-23T06:24:04.114Z,13.13
2023-03-23T06:24:36.560Z,11.69
2023-03-23T06:25:08.997Z,9.76
2023-03-23T06:25:41.620Z,13.69
2023-03-23T06:26:13.991Z,9.60
2023-03-23T06:26:46.449Z,12.01
2023-03-23T06:27:18.899Z,10.16
2023-03-23T06:27:51.369Z,18.89
2023-03-23T06:28:23.804Z,22.41
2023-03-23T06:28:56.256Z,15.61
2023-03-23T06:29:28.747Z,9.44
2023-03-23T06:30:01.188Z,5.92
2023-03-23T06:30:33.690Z,15.69
2023-03-23T06:31:06.143Z,11.13
2023-03-23T06:31:38.602Z,18.65
2023-03-23T06:32:11.041Z,11.29
2023-03-23T06:32:43.491Z,6.96
2023-03-23T06:33:15.942Z,6.88
2023-03-23T06:33:48.383Z,8.08
2023-03-23T06:34:20.957Z,15.77
2023-03-23T06:34:53.339Z,10.00
2023-03-23T06:35:25.797Z,17.45
2023-03-23T06:35:58.306Z,10.57
2023-03-23T06:36:30.753Z,9.60
2023-03-23T06:37:03.219Z,9.12
2023-03-23T06:37:35.685Z,12.81
2023-03-23T06:38:08.127Z,11.13
2023-03-23T06:38:40.561Z,10.97
2023-03-23T06:39:13.009Z,10.89
2023-03-23T06:39:45.482Z,11.13
2023-03-23T06:40:17.956Z,12.09
2023-03-23T06:40:50.393Z,10.40
2023-03-23T06:41:22.889Z,10.00
2023-03-23T06:41:55.331Z,10.73
2023-03-23T06:42:27.777Z,8.24
2023-03-23T06:43:00.226Z,18.33
2023-03-23T06:43:32.674Z,8.96
2023-03-23T06:44:05.143Z,10.00
2023-03-23T06:44:37.645Z,11.21
2023-03-23T06:45:10.106Z,9.36
2023-03-23T06:45:42.795Z,14.65
2023-03-23T06:46:15.020Z,18.57
2023-03-23T06:46:47.496Z,14.41
2023-03-23T06:47:20.000Z,12.01
2023-03-23T06:47:52.509Z,13.37
2023-03-23T06:48:24.995Z,12.33
2023-03-23T06:48:57.428Z,14.81
2023-03-23T06:49:29.885Z,14.25
2023-03-23T06:50:02.371Z,11.85
2023-03-23T06:50:34.837Z,8.56
2023-03-23T06:51:07.283Z,9.12
2023-03-23T06:51:39.758Z,8.88
2023-03-23T06:52:12.224Z,8.24
2023-03-23T06:52:44.681Z,9.60
2023-03-23T06:53:17.150Z,8.48
2023-03-23T06:53:49.656Z,12.17
2023-03-23T06:54:22.111Z,15.13
2023-03-23T06:54:54.517Z,13.53
2023-03-23T06:55:27.015Z,13.13
2023-03-23T06:55:59.450Z,22.57
2023-03-23T06:56:31.897Z,15.53
2023-03-23T06:57:04.352Z,17.85
2023-03-23T06:57:36.817Z,22.01
2023-03-23T06:58:09.256Z,24.17
2023-03-23T06:58:41.760Z,18.49
2023-03-23T06:59:14.193Z,17.61
2023-03-23T06:59:46.648Z,19.37
2023-03-23T07:00:19.109Z,13.21
2023-03-23T07:00:51.530Z,9.60
2023-03-23T07:01:23.995Z,11.13
2023-03-23T07:01:56.486Z,14.49
2023-03-23T07:02:28.935Z,11.45
2023-03-23T07:03:01.372Z,10.24